Historique des mesures à Cassis (13260), France
Quotidien Résumé Juin 21, 2022 Unités:  Métrique/US    US   Métrique
Quotidien Hebdomadaire Mensuel Annuel
  Maximum: Minimum: Moyenne:
Température: 58.3 °F /  14.6 °C 48.7 °F /  9.3 °C 52.5 °F /  11.4 °C
Point de rosée: 52.2 °F /  11.2 °C 36.3 °F /  2.4 °C 43 °F /  6.1 °C
Humidité: 89% 56% 71%
Vitesse du vent: 31.1mph /  50km/h - 7.8mph /  12.5km/h
Rafales: 57mph /  91.8km/h - -
Vent- - WNW
Pression: 30 in /  1015.9 hPa 29.5 in /  1000.3 hPa -
Précipitations: 0.12 in /  3.0 mm    
Historical Graphs
 
 
Mesures pour : Juin 21, 2022
Heure Temperature Point de rosée Pression Vent Vitesse du vent Rafales Humidité Pluie (par heure)
00:10 52.3 °F /  11.3 °C 37 °F /  2.8 °C 30in /  1015.9hPa NNW 12.1mph /  19.4km/h 25mph /  40.3km/h 56% 0in /  0.0mm
01:10 50.7 °F /  10.4 °C 37.4 °F /  3 °C 30in /  1015.3hPa NW 20.1mph /  32.4km/h 35.1mph /  56.5km/h 60% 0in /  0.0mm
02:10 50.4 °F /  10.2 °C 37.8 °F /  3.2 °C 30in /  1015.9hPa NNW 8.7mph /  14km/h 23.2mph /  37.4km/h 62% 0in /  0.0mm
03:10 50.4 °F /  10.2 °C 38.1 °F /  3.4 °C 30in /  1015.1hPa NNW 31.1mph /  50km/h 45.2mph /  72.7km/h 63% 0in /  0.0mm
04:10 50.7 °F /  10.4 °C 37.8 °F /  3.2 °C 30in /  1014.8hPa NNW 21.7mph /  34.9km/h 32.2mph /  51.8km/h 61% 0in /  0.0mm
05:10 50.4 °F /  10.2 °C 37.4 °F /  3 °C 29.9in /  1013.7hPa WNW 7.6mph /  12.2km/h 18.1mph /  29.2km/h 61% 0in /  0.0mm
06:10 49.5 °F /  9.7 °C 36.5 °F /  2.5 °C 29.9in /  1012.9hPa WNW 8.9mph /  14.4km/h 16.5mph /  26.6km/h 61% 0in /  0.0mm
07:10 49.6 °F /  9.8 °C 36.3 °F /  2.4 °C 29.9in /  1013.1hPa Calm   4.7mph /  7.6km/h 60% 0in /  0.0mm
08:10 48.7 °F /  9.3 °C 38.3 °F /  3.5 °C 29.9in /  1012.7hPa NNW 16.8mph /  27km/h 21.7mph /  34.9km/h 67% 0in /  0.0mm
09:10 50.2 °F /  10.1 °C 38.5 °F /  3.6 °C 29.9in /  1012.6hPa North 4.5mph /  7.2km/h 13.2mph /  21.2km/h 64% 0in /  0.0mm
10:10 50.7 °F /  10.4 °C 38.5 °F /  3.6 °C 29.9in /  1012.3hPa NNW 6.3mph /  10.1km/h 10.5mph /  16.9km/h 63% 0in /  0.0mm
11:10 54.1 °F /  12.3 °C 40.1 °F /  4.5 °C 29.9in /  1011.8hPa Calm   2mph /  3.2km/h 59% 0in /  0.0mm
12:10 57.9 °F /  14.4 °C 42.8 °F /  6 °C 29.8in /  1010.6hPa Calm   3.6mph /  5.8km/h 57% 0in /  0.0mm
13:10 58.3 °F /  14.6 °C 44.1 °F /  6.7 °C 29.8in /  1009.0hPa Calm     59% 0in /  0.0mm
14:10 55.9 °F /  13.3 °C 46.4 °F /  8 °C 29.8in /  1007.8hPa Calm     70% 0in /  0.0mm
15:10 54.3 °F /  12.4 °C 48 °F /  8.9 °C 29.7in /  1006.1hPa Calm   57mph /  91.8km/h 79% 0.04in /  1.0mm
16:10 53.8 °F /  12.1 °C 49.1 °F /  9.5 °C 29.7in /  1004.8hPa Calm   2.7mph /  4.3km/h 84% 0.04in /  1.0mm
17:10 55 °F /  12.8 °C 51.3 °F /  10.7 °C 29.6in /  1003.5hPa Calm   4.5mph /  7.2km/h 87% 0in /  0.0mm
18:10 55.9 °F /  13.3 °C 52.2 °F /  11.2 °C 29.6in /  1003.3hPa Calm   1.6mph /  2.5km/h 87% 0in /  0.0mm
19:10 54.7 °F /  12.6 °C 50.9 °F /  10.5 °C 29.6in /  1002.6hPa Calm     87% 0in /  0.0mm
20:10 53.4 °F /  11.9 °C 50 °F /  10 °C 29.6in /  1002.4hPa NW 17mph /  27.4km/h 28.4mph /  45.7km/h 88% 0in /  0.0mm
21:10 52.2 °F /  11.2 °C 48.9 °F /  9.4 °C 29.6in /  1002.5hPa WNW 12.1mph /  19.4km/h 19.9mph /  32km/h 89% 0in /  0.0mm
22:10 50.9 °F /  10.5 °C 46.6 °F /  8.1 °C 29.6in /  1001.0hPa NW 10.5mph /  16.9km/h 26mph /  41.8km/h 85% 0.02in /  0.5mm
23:10 50 °F /  10 °C 45.7 °F /  7.6 °C 29.5in /  1000.3hPa NW 9.2mph /  14.8km/h 14.5mph /  23.4km/h 85% 0.02in /  0.5mm
Observations météo à CASSIS
WU-History script by Weather Underground - 2 mb